Maldives Meteorological Service

TAFS

Station TAF
VRMM
VRMM 221700Z 2218/2324 34005KT 9999 FEW018 TEMPO 2218/2301 5000 –TSRA SCT017CB=
VRMH
VRMH 221700Z 2218/2318 05004KT 9999 FEW018 TEMPO 2218/2301 6000 –TSRA FEW018CB=
VRMK
VRMK 221700Z 2218/2318 32008KT 9999 FEW018 TEMPO 2018/2303 4000 TSRA SCT017CB=
VRMT
VRMT 221700Z 2218/2318 29010KT 9999 FEW017 BKN120 TEMPO 2218/2303 4000 TSRA SCT017CB=
VRMG
VRMG 221700Z 2218/2324 29009KT 9999 FEW018 TEMPO 2218/2301 5000 -TSRA SCT018CB=